This is the latest recevied weather packets stored in our database for station/object MIDVIL-WX. If no packets are shown the sender has not sent any weather packets the latest 10 day(s).
| Time | Temp. | Humidity | Pressure | Rain* | Wind** | Luminosity | Snow |
|---|---|---|---|---|---|---|---|
| 1777845660 | 13.33° C | 57% | 983.6 hPa | 0 mm | - | - | - |
| 1777844726 | 13.89° C | 54% | 984 hPa | 0 mm | - | - | - |
| 1777843843 | 13.33° C | 54% | 983.8 hPa | 0 mm | - | - | - |
| 1777842925 | 13.33° C | 54% | 983.8 hPa | 0 mm | - | - | - |
| 1777842052 | 13.89° C | 54% | 983.8 hPa | 0 mm | - | - | - |
| 1777841125 | 14.44° C | 50% | 984.9 hPa | 0 mm | - | - | - |
| 1777840245 | 13.89° C | 52% | 984.5 hPa | 0 mm | - | - | - |
| 1777839326 | 14.44° C | 52% | 984.5 hPa | 0 mm | - | - | - |
| 1777838454 | 13.89° C | 52% | 984.5 hPa | 0 mm | - | - | - |
| 1777837525 | 13.89° C | 56% | 985 hPa | 0 mm | - | - | - |
| 1777836647 | 13.89° C | 56% | 985 hPa | 0 mm | - | - | - |
| 1777835726 | 13.89° C | 56% | 984.9 hPa | 0 mm | - | - | - |
| 1777834855 | 13.89° C | 56% | 984.9 hPa | 0 mm | - | - | - |
| 1777833927 | 14.44° C | 46% | 985.7 hPa | 0 mm | - | - | - |
| 1777833335 | 14.44° C | 46% | 985.7 hPa | 0 mm | - | - | - |
| 1777832126 | 15° C | 52% | 986 hPa | 0 mm | - | - | - |
| 1777831253 | 14.44° C | 52% | 986 hPa | 0 mm | - | - | - |
| 1777830325 | 14.44° C | 48% | 986.4 hPa | 0 mm | - | - | - |
| 1777829444 | 14.44° C | 46% | 985.8 hPa | 0 mm | - | - | - |
| 1777827652 | 13.89° C | 46% | 985.8 hPa | 0 mm | - | - | - |
| 1777826726 | 13.89° C | 50% | 986.3 hPa | 0 mm | - | - | - |
| 1777825842 | 12.78° C | 51% | 985.3 hPa | 0 mm | - | - | - |
| 1777824925 | 13.33° C | 51% | 985.3 hPa | 0 mm | - | - | - |
| 1777824059 | 12.78° C | 51% | 985.3 hPa | 0 mm | - | - | - |
| 1777823126 | 12.78° C | 53% | 986.8 hPa | 0 mm | - | - | - |
* Rain latest hour (hover to see other rain measurements)
** Current wind speed in m/s (hover to see current wind gust speed)